sensor_id;sensor_type;location;lat;lon;timestamp;pressure;altitude;pressure_sealevel;temperature;humidity
71239;BME280;61342;51.442;7.370;2023-04-27T00:00:37;100426.53;;;7.73;74.94
71239;BME280;61342;51.442;7.370;2023-04-27T00:01:37;100430.94;;;7.74;74.89
71239;BME280;61342;51.442;7.370;2023-04-27T00:02:40;100434.03;;;7.70;74.85
71239;BME280;61342;51.442;7.370;2023-04-27T00:03:42;100425.69;;;7.67;74.90
71239;BME280;61342;51.442;7.370;2023-04-27T00:04:44;100435.53;;;7.66;74.99
71239;BME280;61342;51.442;7.370;2023-04-27T00:05:45;100423.53;;;7.62;75.29
71239;BME280;61342;51.442;7.370;2023-04-27T00:06:45;100426.69;;;7.64;75.12
71239;BME280;61342;51.442;7.370;2023-04-27T00:07:45;100427.72;;;7.61;75.48
71239;BME280;61342;51.442;7.370;2023-04-27T00:08:46;100430.78;;;7.57;75.26
71239;BME280;61342;51.442;7.370;2023-04-27T00:09:46;100425.56;;;7.56;75.31
71239;BME280;61342;51.442;7.370;2023-04-27T00:10:46;100427.38;;;7.53;75.30
71239;BME280;61342;51.442;7.370;2023-04-27T00:11:47;100429.94;;;7.51;75.38
71239;BME280;61342;51.442;7.370;2023-04-27T00:12:47;100432.03;;;7.51;75.52
71239;BME280;61342;51.442;7.370;2023-04-27T00:13:47;100418.19;;;7.44;75.42
71239;BME280;61342;51.442;7.370;2023-04-27T00:14:48;100432.22;;;7.47;75.69
71239;BME280;61342;51.442;7.370;2023-04-27T00:15:48;100431.41;;;7.42;75.78
71239;BME280;61342;51.442;7.370;2023-04-27T00:16:49;100433.75;;;7.43;75.71
71239;BME280;61342;51.442;7.370;2023-04-27T00:17:49;100427.47;;;7.39;75.94
71239;BME280;61342;51.442;7.370;2023-04-27T00:18:50;100438.91;;;7.39;75.94
71239;BME280;61342;51.442;7.370;2023-04-27T00:19:51;100438.91;;;7.39;75.82
71239;BME280;61342;51.442;7.370;2023-04-27T00:20:52;100426.91;;;7.35;76.21
71239;BME280;61342;51.442;7.370;2023-04-27T00:21:52;100431.06;;;7.34;75.84
71239;BME280;61342;51.442;7.370;2023-04-27T00:22:53;100423.19;;;7.29;76.23
71239;BME280;61342;51.442;7.370;2023-04-27T00:23:53;100432.84;;;7.32;76.34
71239;BME280;61342;51.442;7.370;2023-04-27T00:24:54;100432.06;;;7.31;76.04
71239;BME280;61342;51.442;7.370;2023-04-27T00:25:54;100431.22;;;7.25;76.20
71239;BME280;61342;51.442;7.370;2023-04-27T00:26:54;100429.16;;;7.26;76.42
71239;BME280;61342;51.442;7.370;2023-04-27T00:27:55;100426.25;;;7.20;76.27
71239;BME280;61342;51.442;7.370;2023-04-27T00:28:55;100426.50;;;7.22;76.46
71239;BME280;61342;51.442;7.370;2023-04-27T00:29:56;100428.81;;;7.18;76.80
71239;BME280;61342;51.442;7.370;2023-04-27T00:30:56;100424.88;;;7.16;76.67
71239;BME280;61342;51.442;7.370;2023-04-27T00:31:57;100434.53;;;7.18;76.41
71239;BME280;61342;51.442;7.370;2023-04-27T00:32:57;100439.97;;;7.16;76.89
71239;BME280;61342;51.442;7.370;2023-04-27T00:33:57;100433.44;;;7.16;76.68
71239;BME280;61342;51.442;7.370;2023-04-27T00:34:58;100434.47;;;7.13;76.73
71239;BME280;61342;51.442;7.370;2023-04-27T00:35:59;100430.25;;;7.08;76.89
71239;BME280;61342;51.442;7.370;2023-04-27T00:37:00;100438.59;;;7.12;76.98
71239;BME280;61342;51.442;7.370;2023-04-27T00:38:01;100431.81;;;7.09;77.10
71239;BME280;61342;51.442;7.370;2023-04-27T00:39:02;100439.63;;;7.09;76.96
71239;BME280;61342;51.442;7.370;2023-04-27T00:40:04;100433.59;;;7.07;77.26
71239;BME280;61342;51.442;7.370;2023-04-27T00:41:07;100433.84;;;7.03;77.17
71239;BME280;61342;51.442;7.370;2023-04-27T00:42:07;100433.84;;;7.03;77.34
71239;BME280;61342;51.442;7.370;2023-04-27T00:43:12;100437.97;;;7.02;77.25
71239;BME280;61342;51.442;7.370;2023-04-27T00:44:12;100437.41;;;6.98;77.26
71239;BME280;61342;51.442;7.370;2023-04-27T00:45:13;100437.41;;;6.98;77.20
71239;BME280;61342;51.442;7.370;2023-04-27T00:46:13;100423.25;;;6.89;77.16
71239;BME280;61342;51.442;7.370;2023-04-27T00:47:15;100434.25;;;6.96;77.10
71239;BME280;61342;51.442;7.370;2023-04-27T00:48:16;100436.84;;;6.94;77.57
71239;BME280;61342;51.442;7.370;2023-04-27T00:49:17;100442.56;;;6.94;77.29
71239;BME280;61342;51.442;7.370;2023-04-27T00:50:26;100446.13;;;6.89;77.60
71239;BME280;61342;51.442;7.370;2023-04-27T00:51:28;100444.78;;;6.85;77.47
71239;BME280;61342;51.442;7.370;2023-04-27T00:52:30;100439.31;;;6.87;77.71
71239;BME280;61342;51.442;7.370;2023-04-27T00:53:30;100447.91;;;6.87;77.88
71239;BME280;61342;51.442;7.370;2023-04-27T00:54:32;100441.41;;;6.87;77.92
71239;BME280;61342;51.442;7.370;2023-04-27T00:55:33;100436.72;;;6.84;77.80
71239;BME280;61342;51.442;7.370;2023-04-27T00:56:33;100431.97;;;6.81;77.75
71239;BME280;61342;51.442;7.370;2023-04-27T00:57:34;100444.97;;;6.82;77.93
71239;BME280;61342;51.442;7.370;2023-04-27T00:58:34;100442.81;;;6.77;78.13
71239;BME280;61342;51.442;7.370;2023-04-27T00:59:35;100448.53;;;6.77;78.28
71239;BME280;61342;51.442;7.370;2023-04-27T01:00:35;100450.31;;;6.74;78.24
71239;BME280;61342;51.442;7.370;2023-04-27T01:01:36;100452.69;;;6.76;78.15
71239;BME280;61342;51.442;7.370;2023-04-27T01:02:36;100452.13;;;6.72;78.08
71239;BME280;61342;51.442;7.370;2023-04-27T01:03:37;100458.63;;;6.72;78.22
71239;BME280;61342;51.442;7.370;2023-04-27T01:04:38;100458.03;;;6.68;78.31
71239;BME280;61342;51.442;7.370;2023-04-27T01:05:38;100452.84;;;6.67;78.39
71239;BME280;61342;51.442;7.370;2023-04-27T01:06:39;100452.84;;;6.67;78.61
71239;BME280;61342;51.442;7.370;2023-04-27T01:07:40;100454.88;;;6.66;78.55
71239;BME280;61342;51.442;7.370;2023-04-27T01:08:40;100459.56;;;6.64;78.79
71239;BME280;61342;51.442;7.370;2023-04-27T01:09:41;100453.72;;;6.58;78.70
71239;BME280;61342;51.442;7.370;2023-04-27T01:10:41;100455.13;;;6.63;78.70
71239;BME280;61342;51.442;7.370;2023-04-27T01:11:42;100460.03;;;6.62;78.88
71239;BME280;61342;51.442;7.370;2023-04-27T01:12:42;100453.72;;;6.58;78.82
71239;BME280;61342;51.442;7.370;2023-04-27T01:13:43;100465.97;;;6.59;79.06
71239;BME280;61342;51.442;7.370;2023-04-27T01:14:43;100455.53;;;6.56;78.87
71239;BME280;61342;51.442;7.370;2023-04-27T01:15:44;100465.38;;;6.55;79.00
71239;BME280;61342;51.442;7.370;2023-04-27T01:16:44;100465.59;;;6.51;78.96
71239;BME280;61342;51.442;7.370;2023-04-27T01:17:45;100461.16;;;6.50;79.00
71239;BME280;61342;51.442;7.370;2023-04-27T01:18:46;100455.94;;;6.49;79.08
71239;BME280;61342;51.442;7.370;2023-04-27T01:19:46;100453.59;;;6.47;79.32
71239;BME280;61342;51.442;7.370;2023-04-27T01:20:47;100453.59;;;6.47;79.31
71239;BME280;61342;51.442;7.370;2023-04-27T01:21:47;100453.78;;;6.44;79.67
71239;BME280;61342;51.442;7.370;2023-04-27T01:22:48;100465.19;;;6.44;79.34
71239;BME280;61342;51.442;7.370;2023-04-27T01:23:48;100456.38;;;6.42;79.54
71239;BME280;61342;51.442;7.370;2023-04-27T01:24:48;100456.38;;;6.42;79.47
71239;BME280;61342;51.442;7.370;2023-04-27T01:25:49;100476.34;;;6.42;79.47
71239;BME280;61342;51.442;7.370;2023-04-27T01:26:49;100462.28;;;6.38;79.67
71239;BME280;61342;51.442;7.370;2023-04-27T01:27:52;100474.78;;;6.41;79.50
71239;BME280;61342;51.442;7.370;2023-04-27T01:28:55;100466.44;;;6.37;79.88
71239;BME280;61342;51.442;7.370;2023-04-27T01:29:55;100472.59;;;6.36;79.59
71239;BME280;61342;51.442;7.370;2023-04-27T01:30:56;100463.78;;;6.34;79.63
71239;BME280;61342;51.442;7.370;2023-04-27T01:31:56;100466.91;;;6.36;80.07
71239;BME280;61342;51.442;7.370;2023-04-27T01:32:59;100463.78;;;6.34;80.10
71239;BME280;61342;51.442;7.370;2023-04-27T01:34:00;100465.03;;;6.33;80.03
71239;BME280;61342;51.442;7.370;2023-04-27T01:35:01;100463.47;;;6.32;80.02
71239;BME280;61342;51.442;7.370;2023-04-27T01:36:02;100458.47;;;6.27;80.33
71239;BME280;61342;51.442;7.370;2023-04-27T01:37:03;100468.59;;;6.28;80.25
71239;BME280;61342;51.442;7.370;2023-04-27T01:38:03;100461.53;;;6.24;80.19
71239;BME280;61342;51.442;7.370;2023-04-27T01:39:04;100464.66;;;6.26;80.20
71239;BME280;61342;51.442;7.370;2023-04-27T01:40:08;100475.31;;;6.25;80.15
71239;BME280;61342;51.442;7.370;2023-04-27T01:41:09;100465.97;;;6.25;80.27
71239;BME280;61342;51.442;7.370;2023-04-27T01:42:12;100468.25;;;6.21;80.46
71239;BME280;61342;51.442;7.370;2023-04-27T01:43:12;100477.06;;;6.23;80.92
71239;BME280;61342;51.442;7.370;2023-04-27T01:44:13;100472.88;;;6.18;80.12
71239;BME280;61342;51.442;7.370;2023-04-27T01:45:13;100469.22;;;6.18;80.72
71239;BME280;61342;51.442;7.370;2023-04-27T01:46:13;100462.72;;;6.17;80.84
71239;BME280;61342;51.442;7.370;2023-04-27T01:47:15;100473.38;;;6.17;80.69
71239;BME280;61342;51.442;7.370;2023-04-27T01:48:16;100469.44;;;6.14;80.90
71239;BME280;61342;51.442;7.370;2023-04-27T01:49:16;100473.56;;;6.13;80.82
71239;BME280;61342;51.442;7.370;2023-04-27T01:50:17;100480.53;;;6.12;80.87
71239;BME280;61342;51.442;7.370;2023-04-27T01:51:17;100476.91;;;6.12;80.78
71239;BME280;61342;51.442;7.370;2023-04-27T01:52:17;100468.84;;;6.10;81.09
71239;BME280;61342;51.442;7.370;2023-04-27T01:53:18;100480.25;;;6.10;81.00
71239;BME280;61342;51.442;7.370;2023-04-27T01:54:18;100475.81;;;6.09;81.55
71239;BME280;61342;51.442;7.370;2023-04-27T01:55:19;100472.19;;;6.09;81.36
71239;BME280;61342;51.442;7.370;2023-04-27T01:56:19;100479.66;;;6.06;81.53
71239;BME280;61342;51.442;7.370;2023-04-27T01:57:19;100470.03;;;6.04;81.30
71239;BME280;61342;51.442;7.370;2023-04-27T01:58:20;100478.28;;;6.02;81.79
71239;BME280;61342;51.442;7.370;2023-04-27T01:59:21;100475.75;;;6.04;81.54
71239;BME280;61342;51.442;7.370;2023-04-27T02:00:21;100479.28;;;5.99;81.43
71239;BME280;61342;51.442;7.370;2023-04-27T02:01:21;100489.69;;;6.02;81.59
71239;BME280;61342;51.442;7.370;2023-04-27T02:02:22;100480.06;;;5.99;81.62
71239;BME280;61342;51.442;7.370;2023-04-27T02:03:22;100487.06;;;5.98;81.60
71239;BME280;61342;51.442;7.370;2023-04-27T02:04:22;100491.19;;;5.97;81.85
71239;BME280;61342;51.442;7.370;2023-04-27T02:05:23;100486.75;;;5.96;82.10
71239;BME280;61342;51.442;7.370;2023-04-27T02:06:23;100485.16;;;5.95;81.88
71239;BME280;61342;51.442;7.370;2023-04-27T02:07:23;100492.97;;;5.95;81.79
71239;BME280;61342;51.442;7.370;2023-04-27T02:08:24;100492.69;;;5.93;81.93
71239;BME280;61342;51.442;7.370;2023-04-27T02:09:24;100491.09;;;5.92;82.67
71239;BME280;61342;51.442;7.370;2023-04-27T02:10:24;100490.00;;;5.89;82.16
71239;BME280;61342;51.442;7.370;2023-04-27T02:11:25;100485.75;;;5.85;82.22
71239;BME280;61342;51.442;7.370;2023-04-27T02:12:26;100480.88;;;5.85;82.25
71239;BME280;61342;51.442;7.370;2023-04-27T02:13:26;100484.22;;;5.84;82.36
71239;BME280;61342;51.442;7.370;2023-04-27T02:14:27;100487.56;;;5.82;82.29
71239;BME280;61342;51.442;7.370;2023-04-27T02:15:27;100485.66;;;5.79;82.54
71239;BME280;61342;51.442;7.370;2023-04-27T02:16:27;100491.19;;;5.83;82.68
71239;BME280;61342;51.442;7.370;2023-04-27T02:17:28;100498.97;;;5.82;82.50
71239;BME280;61342;51.442;7.370;2023-04-27T02:18:28;100490.88;;;5.81;83.01
71239;BME280;61342;51.442;7.370;2023-04-27T02:19:29;100492.69;;;5.78;82.76
71239;BME280;61342;51.442;7.370;2023-04-27T02:20:30;100498.38;;;5.78;82.63
71239;BME280;61342;51.442;7.370;2023-04-27T02:21:30;100502.50;;;5.77;82.95
71239;BME280;61342;51.442;7.370;2023-04-27T02:22:31;100505.34;;;5.77;82.71
71239;BME280;61342;51.442;7.370;2023-04-27T02:23:32;100505.03;;;5.75;82.66
71239;BME280;61342;51.442;7.370;2023-04-27T02:24:34;100495.38;;;5.73;83.26
71239;BME280;61342;51.442;7.370;2023-04-27T02:25:37;100497.94;;;5.71;83.13
71239;BME280;61342;51.442;7.370;2023-04-27T02:26:38;100495.59;;;5.70;82.94
71239;BME280;61342;51.442;7.370;2023-04-27T02:27:39;100493.50;;;5.70;83.15
71239;BME280;61342;51.442;7.370;2023-04-27T02:28:39;100498.44;;;5.70;83.21
71239;BME280;61342;51.442;7.370;2023-04-27T02:29:40;100498.44;;;5.70;83.49
71239;BME280;61342;51.442;7.370;2023-04-27T02:30:40;100494.50;;;5.67;83.28
71239;BME280;61342;51.442;7.370;2023-04-27T02:31:40;100489.56;;;5.68;83.25
71239;BME280;61342;51.442;7.370;2023-04-27T02:32:41;100491.66;;;5.67;83.45
71239;BME280;61342;51.442;7.370;2023-04-27T02:33:41;100483.59;;;5.66;83.44
71239;BME280;61342;51.442;7.370;2023-04-27T02:34:42;100485.34;;;5.63;83.63
71239;BME280;61342;51.442;7.370;2023-04-27T02:35:42;100473.94;;;5.63;83.64
71239;BME280;61342;51.442;7.370;2023-04-27T02:36:45;100485.84;;;5.62;83.60
71239;BME280;61342;51.442;7.370;2023-04-27T02:37:45;100491.84;;;5.64;83.78
71239;BME280;61342;51.442;7.370;2023-04-27T02:38:45;100488.69;;;5.62;83.48
71239;BME280;61342;51.442;7.370;2023-04-27T02:39:46;100484.56;;;5.63;83.83
71239;BME280;61342;51.442;7.370;2023-04-27T02:40:46;100493.59;;;5.61;83.55
71239;BME280;61342;51.442;7.370;2023-04-27T02:41:51;100489.97;;;5.61;83.98
71239;BME280;61342;51.442;7.370;2023-04-27T02:42:52;100475.13;;;5.57;83.77
71239;BME280;61342;51.442;7.370;2023-04-27T02:43:52;100490.16;;;5.57;84.03
71239;BME280;61342;51.442;7.370;2023-04-27T02:44:53;100482.69;;;5.60;83.80
71239;BME280;61342;51.442;7.370;2023-04-27T02:45:53;100488.09;;;5.58;84.07
71239;BME280;61342;51.442;7.370;2023-04-27T02:46:53;100486.53;;;5.57;84.48
71239;BME280;61342;51.442;7.370;2023-04-27T02:47:54;100487.31;;;5.57;84.29
71239;BME280;61342;51.442;7.370;2023-04-27T02:48:54;100476.13;;;5.54;83.98
71239;BME280;61342;51.442;7.370;2023-04-27T02:49:55;100487.31;;;5.57;84.12
71239;BME280;61342;51.442;7.370;2023-04-27T02:50:55;100476.88;;;5.54;84.30
71239;BME280;61342;51.442;7.370;2023-04-27T02:51:56;100483.38;;;5.55;84.43
71239;BME280;61342;51.442;7.370;2023-04-27T02:52:56;100474.53;;;5.53;84.34
71239;BME280;61342;51.442;7.370;2023-04-27T02:53:57;100478.97;;;5.54;84.51
71239;BME280;61342;51.442;7.370;2023-04-27T02:54:57;100466.66;;;5.48;84.38
71239;BME280;61342;51.442;7.370;2023-04-27T02:55:57;100482.31;;;5.52;84.30
71239;BME280;61342;51.442;7.370;2023-04-27T02:56:58;100482.78;;;5.51;84.74
71239;BME280;61342;51.442;7.370;2023-04-27T02:57:58;100483.56;;;5.51;84.76
71239;BME280;61342;51.442;7.370;2023-04-27T02:58:59;100478.84;;;5.48;84.71
71239;BME280;61342;51.442;7.370;2023-04-27T02:59:59;100478.38;;;5.50;84.61
71239;BME280;61342;51.442;7.370;2023-04-27T03:00:59;100476.47;;;5.47;84.79
71239;BME280;61342;51.442;7.370;2023-04-27T03:02:00;100485.03;;;5.47;84.84
71239;BME280;61342;51.442;7.370;2023-04-27T03:03:00;100482.41;;;5.43;84.56
71239;BME280;61342;51.442;7.370;2023-04-27T03:04:01;100486.03;;;5.44;84.42
71239;BME280;61342;51.442;7.370;2023-04-27T03:05:01;100481.59;;;5.43;84.86
71239;BME280;61342;51.442;7.370;2023-04-27T03:06:02;100482.88;;;5.42;84.75
71239;BME280;61342;51.442;7.370;2023-04-27T03:07:03;100493.00;;;5.43;84.94
71239;BME280;61342;51.442;7.370;2023-04-27T03:08:04;100473.75;;;5.38;84.78
71239;BME280;61342;51.442;7.370;2023-04-27T03:09:04;100477.66;;;5.40;84.73
71239;BME280;61342;51.442;7.370;2023-04-27T03:10:05;100481.00;;;5.39;84.90
71239;BME280;61342;51.442;7.370;2023-04-27T03:11:06;100470.31;;;5.34;85.05
71239;BME280;61342;51.442;7.370;2023-04-27T03:12:08;100481.38;;;5.32;85.17
71239;BME280;61342;51.442;7.370;2023-04-27T03:13:08;100481.19;;;5.35;85.05
71239;BME280;61342;51.442;7.370;2023-04-27T03:14:09;100472.56;;;5.30;84.96
71239;BME280;61342;51.442;7.370;2023-04-27T03:15:10;100473.59;;;5.32;85.01
71239;BME280;61342;51.442;7.370;2023-04-27T03:16:10;100474.91;;;5.31;84.95
71239;BME280;61342;51.442;7.370;2023-04-27T03:17:10;100478.25;;;5.30;85.25
71239;BME280;61342;51.442;7.370;2023-04-27T03:18:11;100477.16;;;5.27;85.12
71239;BME280;61342;51.442;7.370;2023-04-27T03:19:11;100468.31;;;5.25;85.39
71239;BME280;61342;51.442;7.370;2023-04-27T03:20:12;100461.03;;;5.24;85.15
71239;BME280;61342;51.442;7.370;2023-04-27T03:21:12;100461.81;;;5.25;85.37
71239;BME280;61342;51.442;7.370;2023-04-27T03:22:13;100459.66;;;5.20;85.41
71239;BME280;61342;51.442;7.370;2023-04-27T03:23:14;100465.63;;;5.22;85.19
71239;BME280;61342;51.442;7.370;2023-04-27T03:24:14;100456.97;;;5.16;85.42
71239;BME280;61342;51.442;7.370;2023-04-27T03:25:14;100460.16;;;5.18;85.39
71239;BME280;61342;51.442;7.370;2023-04-27T03:26:15;100466.13;;;5.20;85.50
71239;BME280;61342;51.442;7.370;2023-04-27T03:27:15;100460.03;;;5.13;85.71
71239;BME280;61342;51.442;7.370;2023-04-27T03:28:16;100458.75;;;5.14;85.67
71239;BME280;61342;51.442;7.370;2023-04-27T03:29:16;100460.03;;;5.13;85.60
71239;BME280;61342;51.442;7.370;2023-04-27T03:30:17;100466.81;;;5.15;85.69
71239;BME280;61342;51.442;7.370;2023-04-27T03:31:17;100453.03;;;5.14;85.68
71239;BME280;61342;51.442;7.370;2023-04-27T03:32:18;100464.16;;;5.12;85.81
71239;BME280;61342;51.442;7.370;2023-04-27T03:33:18;100468.88;;;5.15;85.88
71239;BME280;61342;51.442;7.370;2023-04-27T03:34:18;100463.72;;;5.05;85.63
71239;BME280;61342;51.442;7.370;2023-04-27T03:35:20;100470.13;;;5.14;86.09
71239;BME280;61342;51.442;7.370;2023-04-27T03:36:21;100463.84;;;5.10;86.18
71239;BME280;61342;51.442;7.370;2023-04-27T03:37:21;100460.72;;;5.08;86.08
71239;BME280;61342;51.442;7.370;2023-04-27T03:38:22;100464.66;;;5.11;86.10
71239;BME280;61342;51.442;7.370;2023-04-27T03:39:23;100469.84;;;5.12;86.25
71239;BME280;61342;51.442;7.370;2023-04-27T03:40:23;100463.84;;;5.10;86.24
71239;BME280;61342;51.442;7.370;2023-04-27T03:41:23;100463.06;;;5.10;86.39
71239;BME280;61342;51.442;7.370;2023-04-27T03:42:24;100465.91;;;5.10;86.46
71239;BME280;61342;51.442;7.370;2023-04-27T03:43:24;100469.53;;;5.10;86.31
71239;BME280;61342;51.442;7.370;2023-04-27T03:44:25;100470.03;;;5.09;86.17
71239;BME280;61342;51.442;7.370;2023-04-27T03:45:25;100473.69;;;5.09;86.43
71239;BME280;61342;51.442;7.370;2023-04-27T03:46:26;100471.31;;;5.08;86.41
71239;BME280;61342;51.442;7.370;2023-04-27T03:47:26;100460.50;;;4.97;86.63
71239;BME280;61342;51.442;7.370;2023-04-27T03:48:26;100482.72;;;5.08;86.46
71239;BME280;61342;51.442;7.370;2023-04-27T03:49:26;100477.47;;;5.06;86.49
71239;BME280;61342;51.442;7.370;2023-04-27T03:50:27;100484.47;;;5.05;86.52
71239;BME280;61342;51.442;7.370;2023-04-27T03:51:29;100475.63;;;5.03;87.18
71239;BME280;61342;51.442;7.370;2023-04-27T03:52:31;100476.41;;;5.04;86.80
71239;BME280;61342;51.442;7.370;2023-04-27T03:53:31;100475.63;;;5.03;86.58
71239;BME280;61342;51.442;7.370;2023-04-27T03:54:31;100477.19;;;5.04;86.82
71239;BME280;61342;51.442;7.370;2023-04-27T03:55:32;100488.59;;;5.04;86.61
71239;BME280;61342;51.442;7.370;2023-04-27T03:56:32;100481.81;;;5.02;87.02
71239;BME280;61342;51.442;7.370;2023-04-27T03:57:33;100478.19;;;5.01;87.10
71239;BME280;61342;51.442;7.370;2023-04-27T03:58:33;100487.00;;;5.03;87.02
71239;BME280;61342;51.442;7.370;2023-04-27T03:59:33;100485.63;;;4.99;87.03
71239;BME280;61342;51.442;7.370;2023-04-27T04:00:34;100490.53;;;4.98;87.00
71239;BME280;61342;51.442;7.370;2023-04-27T04:01:35;100481.19;;;4.98;87.13
71239;BME280;61342;51.442;7.370;2023-04-27T04:02:35;100489.56;;;5.01;87.13
71239;BME280;61342;51.442;7.370;2023-04-27T04:03:36;100488.28;;;5.02;87.24
71239;BME280;61342;51.442;7.370;2023-04-27T04:04:36;100489.56;;;5.01;87.45
71239;BME280;61342;51.442;7.370;2023-04-27T04:05:36;100483.28;;;4.97;87.32
71239;BME280;61342;51.442;7.370;2023-04-27T04:06:37;100479.94;;;4.99;87.46
71239;BME280;61342;51.442;7.370;2023-04-27T04:07:37;100479.13;;;4.98;87.37
71239;BME280;61342;51.442;7.370;2023-04-27T04:08:37;100490.53;;;4.98;87.54
71239;BME280;61342;51.442;7.370;2023-04-27T04:09:38;100478.03;;;4.96;87.33
71239;BME280;61342;51.442;7.370;2023-04-27T04:10:38;100477.75;;;4.94;87.52
71239;BME280;61342;51.442;7.370;2023-04-27T04:11:39;100488.16;;;4.97;87.43
71239;BME280;61342;51.442;7.370;2023-04-27T04:12:39;100474.47;;;4.86;87.64
71239;BME280;61342;51.442;7.370;2023-04-27T04:13:39;100488.97;;;4.97;87.45
71239;BME280;61342;51.442;7.370;2023-04-27T04:14:41;100487.06;;;4.94;87.67
71239;BME280;61342;51.442;7.370;2023-04-27T04:15:41;100497.19;;;4.95;87.65
71239;BME280;61342;51.442;7.370;2023-04-27T04:16:42;100492.28;;;4.96;87.35
71239;BME280;61342;51.442;7.370;2023-04-27T04:17:42;100495.63;;;4.94;87.51
71239;BME280;61342;51.442;7.370;2023-04-27T04:18:43;100489.91;;;4.94;87.85
71239;BME280;61342;51.442;7.370;2023-04-27T04:19:43;100487.78;;;4.89;87.81
71239;BME280;61342;51.442;7.370;2023-04-27T04:20:44;100494.84;;;4.94;87.84
71239;BME280;61342;51.442;7.370;2023-04-27T04:21:44;100503.38;;;4.94;87.98
71239;BME280;61342;51.442;7.370;2023-04-27T04:22:44;100507.50;;;4.93;87.75
71239;BME280;61342;51.442;7.370;2023-04-27T04:23:44;100505.63;;;4.90;87.87
71239;BME280;61342;51.442;7.370;2023-04-27T04:24:45;100506.41;;;4.90;88.46
71239;BME280;61342;51.442;7.370;2023-04-27T04:25:46;100505.13;;;4.91;87.86
71239;BME280;61342;51.442;7.370;2023-04-27T04:26:49;100506.72;;;4.92;87.92
71239;BME280;61342;51.442;7.370;2023-04-27T04:27:49;100515.25;;;4.92;88.02
71239;BME280;61342;51.442;7.370;2023-04-27T04:28:50;100509.75;;;4.89;88.05
71239;BME280;61342;51.442;7.370;2023-04-27T04:29:51;100512.09;;;4.90;87.87
71239;BME280;61342;51.442;7.370;2023-04-27T04:30:52;100510.56;;;4.89;87.65
71239;BME280;61342;51.442;7.370;2023-04-27T04:31:52;100498.72;;;4.82;87.97
71239;BME280;61342;51.442;7.370;2023-04-27T04:32:52;100508.16;;;4.88;87.76
71239;BME280;61342;51.442;7.370;2023-04-27T04:34:14;100519.25;;;4.86;87.83
71239;BME280;61342;51.442;7.370;2023-04-27T04:35:14;100516.69;;;4.88;88.05
71239;BME280;61342;51.442;7.370;2023-04-27T04:36:24;100520.03;;;4.86;87.89
71239;BME280;61342;51.442;7.370;2023-04-27T04:37:25;100504.31;;;4.76;87.90
71239;BME280;61342;51.442;7.370;2023-04-27T04:38:25;100508.34;;;4.84;87.89
71239;BME280;61342;51.442;7.370;2023-04-27T04:39:29;100503.94;;;4.83;87.77
71239;BME280;61342;51.442;7.370;2023-04-27T04:40:33;100508.34;;;4.84;87.79
71239;BME280;61342;51.442;7.370;2023-04-27T04:41:33;100516.91;;;4.84;87.75
71239;BME280;61342;51.442;7.370;2023-04-27T04:42:35;100515.31;;;4.83;87.83
71239;BME280;61342;51.442;7.370;2023-04-27T04:43:36;100516.59;;;4.82;88.00
71239;BME280;61342;51.442;7.370;2023-04-27T04:44:36;100519.16;;;4.80;87.79
71239;BME280;61342;51.442;7.370;2023-04-27T04:45:37;100514.53;;;4.83;88.01
71239;BME280;61342;51.442;7.370;2023-04-27T04:46:38;100508.25;;;4.79;88.02
71239;BME280;61342;51.442;7.370;2023-04-27T04:47:38;100509.31;;;4.81;87.71
71239;BME280;61342;51.442;7.370;2023-04-27T04:48:38;100509.31;;;4.81;88.08
71239;BME280;61342;51.442;7.370;2023-04-27T04:49:39;100507.75;;;4.80;87.99
71239;BME280;61342;51.442;7.370;2023-04-27T04:50:39;100498.91;;;4.78;88.07
71239;BME280;61342;51.442;7.370;2023-04-27T04:51:42;100505.41;;;4.79;88.15
71239;BME280;61342;51.442;7.370;2023-04-27T04:52:42;100506.19;;;4.79;88.11
71239;BME280;61342;51.442;7.370;2023-04-27T04:53:43;100508.69;;;4.77;88.16
71239;BME280;61342;51.442;7.370;2023-04-27T04:54:43;100508.69;;;4.77;88.30
71239;BME280;61342;51.442;7.370;2023-04-27T04:55:44;100504.59;;;4.78;88.37
71239;BME280;61342;51.442;7.370;2023-04-27T04:56:44;100503.50;;;4.76;88.32
71239;BME280;61342;51.442;7.370;2023-04-27T04:57:44;100513.34;;;4.75;88.38
71239;BME280;61342;51.442;7.370;2023-04-27T04:58:45;100508.25;;;4.79;88.27
71239;BME280;61342;51.442;7.370;2023-04-27T04:59:45;100505.84;;;4.77;88.18
71239;BME280;61342;51.442;7.370;2023-04-27T05:00:46;100502.72;;;4.75;88.51
71239;BME280;61342;51.442;7.370;2023-04-27T05:01:46;100504.59;;;4.78;88.46
71239;BME280;61342;51.442;7.370;2023-04-27T05:02:46;100505.84;;;4.77;88.45
71239;BME280;61342;51.442;7.370;2023-04-27T05:03:46;100512.66;;;4.80;88.48
71239;BME280;61342;51.442;7.370;2023-04-27T05:04:47;100510.28;;;4.78;88.29
71239;BME280;61342;51.442;7.370;2023-04-27T05:05:47;100505.75;;;4.72;88.33
71239;BME280;61342;51.442;7.370;2023-04-27T05:06:48;100512.66;;;4.80;88.51
71239;BME280;61342;51.442;7.370;2023-04-27T05:07:48;100509.78;;;4.80;88.47
71239;BME280;61342;51.442;7.370;2023-04-27T05:08:49;100509.78;;;4.80;88.69
71239;BME280;61342;51.442;7.370;2023-04-27T05:09:49;100495.16;;;4.72;88.58
71239;BME280;61342;51.442;7.370;2023-04-27T05:10:50;100506.94;;;4.80;88.54
71239;BME280;61342;51.442;7.370;2023-04-27T05:11:51;100510.59;;;4.80;88.66
71239;BME280;61342;51.442;7.370;2023-04-27T05:12:51;100503.63;;;4.81;88.46
71239;BME280;61342;51.442;7.370;2023-04-27T05:13:52;100513.25;;;4.84;88.49
71239;BME280;61342;51.442;7.370;2023-04-27T05:14:52;100512.47;;;4.83;88.73
71239;BME280;61342;51.442;7.370;2023-04-27T05:15:53;100511.22;;;4.84;88.52
71239;BME280;61342;51.442;7.370;2023-04-27T05:16:53;100511.97;;;4.85;88.44
71239;BME280;61342;51.442;7.370;2023-04-27T05:17:53;100523.22;;;4.88;88.67
71239;BME280;61342;51.442;7.370;2023-04-27T05:18:54;100495.44;;;4.74;88.53
71239;BME280;61342;51.442;7.370;2023-04-27T05:19:54;100520.66;;;4.90;88.67
71239;BME280;61342;51.442;7.370;2023-04-27T05:20:54;100515.25;;;4.92;88.60
71239;BME280;61342;51.442;7.370;2023-04-27T05:21:55;100511.94;;;4.94;88.66